sensor_id;sensor_type;location;lat;lon;timestamp;P1;durP1;ratioP1;P2;durP2;ratioP2
23280;SDS011;11809;56.390;-3.266;2023-06-04T00:01:28;1.98;;;1.77;;
23280;SDS011;11809;56.390;-3.266;2023-06-04T00:03:56;2.05;;;1.85;;
23280;SDS011;11809;56.390;-3.266;2023-06-04T00:06:23;1.75;;;1.65;;
23280;SDS011;11809;56.390;-3.266;2023-06-04T00:08:50;3.33;;;1.60;;
23280;SDS011;11809;56.390;-3.266;2023-06-04T00:11:17;3.40;;;1.80;;
23280;SDS011;11809;56.390;-3.266;2023-06-04T00:13:44;4.00;;;2.28;;
23280;SDS011;11809;56.390;-3.266;2023-06-04T00:16:11;2.92;;;1.83;;
23280;SDS011;11809;56.390;-3.266;2023-06-04T00:18:38;2.17;;;1.92;;
23280;SDS011;11809;56.390;-3.266;2023-06-04T00:21:06;2.05;;;1.77;;
23280;SDS011;11809;56.390;-3.266;2023-06-04T00:23:33;4.53;;;2.20;;
23280;SDS011;11809;56.390;-3.266;2023-06-04T00:26:00;5.75;;;2.15;;
23280;SDS011;11809;56.390;-3.266;2023-06-04T00:28:27;2.75;;;2.00;;
23280;SDS011;11809;56.390;-3.266;2023-06-04T00:30:54;2.45;;;2.00;;
23280;SDS011;11809;56.390;-3.266;2023-06-04T00:33:21;2.85;;;1.95;;
23280;SDS011;11809;56.390;-3.266;2023-06-04T00:35:48;1.90;;;1.75;;
23280;SDS011;11809;56.390;-3.266;2023-06-04T00:38:16;2.10;;;1.90;;
23280;SDS011;11809;56.390;-3.266;2023-06-04T00:40:43;5.80;;;2.08;;
23280;SDS011;11809;56.390;-3.266;2023-06-04T00:43:10;3.47;;;2.00;;
23280;SDS011;11809;56.390;-3.266;2023-06-04T00:45:37;3.42;;;1.90;;
23280;SDS011;11809;56.390;-3.266;2023-06-04T00:48:04;2.55;;;1.80;;
23280;SDS011;11809;56.390;-3.266;2023-06-04T00:50:32;3.40;;;2.00;;
23280;SDS011;11809;56.390;-3.266;2023-06-04T00:52:59;6.93;;;2.30;;
23280;SDS011;11809;56.390;-3.266;2023-06-04T00:55:27;2.97;;;2.10;;
23280;SDS011;11809;56.390;-3.266;2023-06-04T00:57:55;2.10;;;1.77;;
23280;SDS011;11809;56.390;-3.266;2023-06-04T01:00:21;2.75;;;1.98;;
23280;SDS011;11809;56.390;-3.266;2023-06-04T01:02:49;2.10;;;1.90;;
23280;SDS011;11809;56.390;-3.266;2023-06-04T01:05:22;3.08;;;2.40;;
23280;SDS011;11809;56.390;-3.266;2023-06-04T01:08:00;2.70;;;1.88;;
23280;SDS011;11809;56.390;-3.266;2023-06-04T01:10:28;3.58;;;1.80;;
23280;SDS011;11809;56.390;-3.266;2023-06-04T01:12:55;3.08;;;1.98;;
23280;SDS011;11809;56.390;-3.266;2023-06-04T01:15:22;2.42;;;1.90;;
23280;SDS011;11809;56.390;-3.266;2023-06-04T01:17:49;2.42;;;1.75;;
23280;SDS011;11809;56.390;-3.266;2023-06-04T01:26:03;2.95;;;1.92;;
23280;SDS011;11809;56.390;-3.266;2023-06-04T01:28:32;3.95;;;2.30;;
23280;SDS011;11809;56.390;-3.266;2023-06-04T01:31:01;3.80;;;2.30;;
23280;SDS011;11809;56.390;-3.266;2023-06-04T01:33:30;5.00;;;2.28;;
23280;SDS011;11809;56.390;-3.266;2023-06-04T01:35:57;2.55;;;2.22;;
23280;SDS011;11809;56.390;-3.266;2023-06-04T01:38:24;2.30;;;2.10;;
23280;SDS011;11809;56.390;-3.266;2023-06-04T01:40:52;2.95;;;2.35;;
23280;SDS011;11809;56.390;-3.266;2023-06-04T01:43:22;3.55;;;2.38;;
23280;SDS011;11809;56.390;-3.266;2023-06-04T01:45:49;2.50;;;2.30;;
23280;SDS011;11809;56.390;-3.266;2023-06-04T01:48:16;2.70;;;2.28;;
23280;SDS011;11809;56.390;-3.266;2023-06-04T01:50:44;4.53;;;2.40;;
23280;SDS011;11809;56.390;-3.266;2023-06-04T01:53:11;2.53;;;2.25;;
23280;SDS011;11809;56.390;-3.266;2023-06-04T01:55:38;2.50;;;2.30;;
23280;SDS011;11809;56.390;-3.266;2023-06-04T01:58:05;2.40;;;2.20;;
23280;SDS011;11809;56.390;-3.266;2023-06-04T02:00:33;2.50;;;2.30;;
23280;SDS011;11809;56.390;-3.266;2023-06-04T02:03:00;2.00;;;1.90;;
23280;SDS011;11809;56.390;-3.266;2023-06-04T02:05:28;3.72;;;2.40;;
23280;SDS011;11809;56.390;-3.266;2023-06-04T02:07:55;2.60;;;2.40;;
23280;SDS011;11809;56.390;-3.266;2023-06-04T02:10:23;2.53;;;2.33;;
23280;SDS011;11809;56.390;-3.266;2023-06-04T02:12:55;2.50;;;2.30;;
23280;SDS011;11809;56.390;-3.266;2023-06-04T02:15:22;2.65;;;2.40;;
23280;SDS011;11809;56.390;-3.266;2023-06-04T02:17:53;4.10;;;2.33;;
23280;SDS011;11809;56.390;-3.266;2023-06-04T02:20:27;2.67;;;2.40;;
23280;SDS011;11809;56.390;-3.266;2023-06-04T02:22:55;3.10;;;2.80;;
23280;SDS011;11809;56.390;-3.266;2023-06-04T02:25:22;2.60;;;2.40;;
23280;SDS011;11809;56.390;-3.266;2023-06-04T02:27:50;2.55;;;2.30;;
23280;SDS011;11809;56.390;-3.266;2023-06-04T02:30:17;3.92;;;2.58;;
23280;SDS011;11809;56.390;-3.266;2023-06-04T02:32:44;3.05;;;2.75;;
23280;SDS011;11809;56.390;-3.266;2023-06-04T02:35:18;7.68;;;2.63;;
23280;SDS011;11809;56.390;-3.266;2023-06-04T02:37:45;2.80;;;2.60;;
23280;SDS011;11809;56.390;-3.266;2023-06-04T02:40:12;2.95;;;2.67;;
23280;SDS011;11809;56.390;-3.266;2023-06-04T02:42:39;2.90;;;2.60;;
23280;SDS011;11809;56.390;-3.266;2023-06-04T02:45:06;3.28;;;2.97;;
23280;SDS011;11809;56.390;-3.266;2023-06-04T02:47:34;2.78;;;2.58;;
23280;SDS011;11809;56.390;-3.266;2023-06-04T02:50:01;3.85;;;2.50;;
23280;SDS011;11809;56.390;-3.266;2023-06-04T02:52:30;3.20;;;2.17;;
23280;SDS011;11809;56.390;-3.266;2023-06-04T02:54:57;2.58;;;2.38;;
23280;SDS011;11809;56.390;-3.266;2023-06-04T02:57:24;2.80;;;2.60;;
23280;SDS011;11809;56.390;-3.266;2023-06-04T02:59:51;2.70;;;2.50;;
23280;SDS011;11809;56.390;-3.266;2023-06-04T03:02:18;3.13;;;2.65;;
23280;SDS011;11809;56.390;-3.266;2023-06-04T03:04:45;3.28;;;2.58;;
23280;SDS011;11809;56.390;-3.266;2023-06-04T03:07:17;2.65;;;2.45;;
23280;SDS011;11809;56.390;-3.266;2023-06-04T03:09:49;2.85;;;2.65;;
23280;SDS011;11809;56.390;-3.266;2023-06-04T03:12:16;2.70;;;2.50;;
23280;SDS011;11809;56.390;-3.266;2023-06-04T03:14:44;2.60;;;2.40;;
23280;SDS011;11809;56.390;-3.266;2023-06-04T03:17:11;3.10;;;2.80;;
23280;SDS011;11809;56.390;-3.266;2023-06-04T03:19:38;6.25;;;2.78;;
23280;SDS011;11809;56.390;-3.266;2023-06-04T03:22:08;3.63;;;2.60;;
23280;SDS011;11809;56.390;-3.266;2023-06-04T03:24:36;4.30;;;3.25;;
23280;SDS011;11809;56.390;-3.266;2023-06-04T03:27:10;2.97;;;2.65;;
23280;SDS011;11809;56.390;-3.266;2023-06-04T03:29:37;2.97;;;2.60;;
23280;SDS011;11809;56.390;-3.266;2023-06-04T03:32:04;3.00;;;2.72;;
23280;SDS011;11809;56.390;-3.266;2023-06-04T03:34:32;3.15;;;2.80;;
23280;SDS011;11809;56.390;-3.266;2023-06-04T03:37:01;3.25;;;2.95;;
23280;SDS011;11809;56.390;-3.266;2023-06-04T03:39:28;4.07;;;2.83;;
23280;SDS011;11809;56.390;-3.266;2023-06-04T03:41:55;2.85;;;2.58;;
23280;SDS011;11809;56.390;-3.266;2023-06-04T03:44:22;3.47;;;2.70;;
23280;SDS011;11809;56.390;-3.266;2023-06-04T03:46:49;3.00;;;2.80;;
23280;SDS011;11809;56.390;-3.266;2023-06-04T03:49:16;2.95;;;2.65;;
23280;SDS011;11809;56.390;-3.266;2023-06-04T03:51:43;3.40;;;2.97;;
23280;SDS011;11809;56.390;-3.266;2023-06-04T03:54:11;2.67;;;2.47;;
23280;SDS011;11809;56.390;-3.266;2023-06-04T03:56:38;5.00;;;3.00;;
23280;SDS011;11809;56.390;-3.266;2023-06-04T03:59:06;2.92;;;2.63;;
23280;SDS011;11809;56.390;-3.266;2023-06-04T04:01:33;2.90;;;2.70;;
23280;SDS011;11809;56.390;-3.266;2023-06-04T04:04:00;3.15;;;2.83;;
23280;SDS011;11809;56.390;-3.266;2023-06-04T04:06:27;2.78;;;2.58;;
23280;SDS011;11809;56.390;-3.266;2023-06-04T04:08:54;2.60;;;2.40;;
23280;SDS011;11809;56.390;-3.266;2023-06-04T04:11:21;4.43;;;2.88;;
23280;SDS011;11809;56.390;-3.266;2023-06-04T04:13:48;3.25;;;2.95;;
23280;SDS011;11809;56.390;-3.266;2023-06-04T04:16:15;3.25;;;2.92;;
23280;SDS011;11809;56.390;-3.266;2023-06-04T04:18:43;3.00;;;2.80;;
23280;SDS011;11809;56.390;-3.266;2023-06-04T04:21:10;2.90;;;2.50;;
23280;SDS011;11809;56.390;-3.266;2023-06-04T04:23:38;3.22;;;2.72;;
23280;SDS011;11809;56.390;-3.266;2023-06-04T04:26:08;2.70;;;2.47;;
23280;SDS011;11809;56.390;-3.266;2023-06-04T04:28:36;2.70;;;2.45;;
23280;SDS011;11809;56.390;-3.266;2023-06-04T04:31:04;2.80;;;2.60;;
23280;SDS011;11809;56.390;-3.266;2023-06-04T04:33:31;4.70;;;2.80;;
23280;SDS011;11809;56.390;-3.266;2023-06-04T04:35:59;3.80;;;2.63;;
23280;SDS011;11809;56.390;-3.266;2023-06-04T04:38:29;3.50;;;2.63;;
23280;SDS011;11809;56.390;-3.266;2023-06-04T04:40:58;2.67;;;2.47;;
23280;SDS011;11809;56.390;-3.266;2023-06-04T04:43:30;2.92;;;2.30;;
23280;SDS011;11809;56.390;-3.266;2023-06-04T04:45:58;3.58;;;2.45;;
23280;SDS011;11809;56.390;-3.266;2023-06-04T04:48:26;2.13;;;2.00;;
23280;SDS011;11809;56.390;-3.266;2023-06-04T04:50:53;3.58;;;2.30;;
23280;SDS011;11809;56.390;-3.266;2023-06-04T04:53:21;2.60;;;2.40;;
23280;SDS011;11809;56.390;-3.266;2023-06-04T04:55:48;4.60;;;2.55;;
23280;SDS011;11809;56.390;-3.266;2023-06-04T04:58:15;6.05;;;2.30;;
23280;SDS011;11809;56.390;-3.266;2023-06-04T05:00:42;3.67;;;2.50;;
23280;SDS011;11809;56.390;-3.266;2023-06-04T05:03:09;4.88;;;2.75;;
23280;SDS011;11809;56.390;-3.266;2023-06-04T05:05:36;2.65;;;2.20;;
23280;SDS011;11809;56.390;-3.266;2023-06-04T05:08:04;3.00;;;2.70;;
23280;SDS011;11809;56.390;-3.266;2023-06-04T05:10:31;2.78;;;2.25;;
23280;SDS011;11809;56.390;-3.266;2023-06-04T05:12:58;2.67;;;2.40;;
23280;SDS011;11809;56.390;-3.266;2023-06-04T05:15:27;3.67;;;2.30;;
23280;SDS011;11809;56.390;-3.266;2023-06-04T05:17:54;3.35;;;2.30;;
23280;SDS011;11809;56.390;-3.266;2023-06-04T05:20:23;5.82;;;2.50;;
23280;SDS011;11809;56.390;-3.266;2023-06-04T05:22:50;5.47;;;2.35;;
23280;SDS011;11809;56.390;-3.266;2023-06-04T05:25:18;32.90;;;4.25;;
23280;SDS011;11809;56.390;-3.266;2023-06-04T05:27:45;18.75;;;3.00;;
23280;SDS011;11809;56.390;-3.266;2023-06-04T05:30:15;25.70;;;2.90;;
23280;SDS011;11809;56.390;-3.266;2023-06-04T05:32:43;19.42;;;3.05;;
23280;SDS011;11809;56.390;-3.266;2023-06-04T05:35:10;12.57;;;2.80;;
23280;SDS011;11809;56.390;-3.266;2023-06-04T05:37:38;19.13;;;3.08;;
23280;SDS011;11809;56.390;-3.266;2023-06-04T05:40:07;8.20;;;2.58;;
23280;SDS011;11809;56.390;-3.266;2023-06-04T05:42:35;9.50;;;2.60;;
23280;SDS011;11809;56.390;-3.266;2023-06-04T05:45:03;8.93;;;2.67;;
23280;SDS011;11809;56.390;-3.266;2023-06-04T05:47:31;11.68;;;2.85;;
23280;SDS011;11809;56.390;-3.266;2023-06-04T05:49:58;16.38;;;2.88;;
23280;SDS011;11809;56.390;-3.266;2023-06-04T05:52:25;38.20;;;4.32;;
23280;SDS011;11809;56.390;-3.266;2023-06-04T05:54:52;16.05;;;3.35;;
23280;SDS011;11809;56.390;-3.266;2023-06-04T05:57:19;14.10;;;2.97;;
23280;SDS011;11809;56.390;-3.266;2023-06-04T05:59:47;16.25;;;2.78;;
23280;SDS011;11809;56.390;-3.266;2023-06-04T06:02:14;10.60;;;2.70;;
23280;SDS011;11809;56.390;-3.266;2023-06-04T06:04:41;10.80;;;2.65;;
23280;SDS011;11809;56.390;-3.266;2023-06-04T06:07:09;13.55;;;2.97;;
23280;SDS011;11809;56.390;-3.266;2023-06-04T06:09:36;10.32;;;2.53;;
23280;SDS011;11809;56.390;-3.266;2023-06-04T06:12:03;22.80;;;2.92;;
23280;SDS011;11809;56.390;-3.266;2023-06-04T06:14:30;15.60;;;2.47;;
23280;SDS011;11809;56.390;-3.266;2023-06-04T06:16:57;9.38;;;2.35;;
23280;SDS011;11809;56.390;-3.266;2023-06-04T06:19:24;12.45;;;2.80;;
23280;SDS011;11809;56.390;-3.266;2023-06-04T06:21:51;12.93;;;2.55;;
23280;SDS011;11809;56.390;-3.266;2023-06-04T06:24:18;9.32;;;2.63;;
23280;SDS011;11809;56.390;-3.266;2023-06-04T06:26:45;8.73;;;2.33;;
23280;SDS011;11809;56.390;-3.266;2023-06-04T06:29:12;9.23;;;2.42;;
23280;SDS011;11809;56.390;-3.266;2023-06-04T06:31:40;11.80;;;2.72;;
23280;SDS011;11809;56.390;-3.266;2023-06-04T06:34:07;6.43;;;2.40;;
23280;SDS011;11809;56.390;-3.266;2023-06-04T06:36:34;9.07;;;2.30;;
23280;SDS011;11809;56.390;-3.266;2023-06-04T06:39:01;24.02;;;3.17;;
23280;SDS011;11809;56.390;-3.266;2023-06-04T06:41:29;8.20;;;2.05;;
23280;SDS011;11809;56.390;-3.266;2023-06-04T06:43:57;18.02;;;2.75;;
23280;SDS011;11809;56.390;-3.266;2023-06-04T06:46:24;32.65;;;3.33;;
23280;SDS011;11809;56.390;-3.266;2023-06-04T06:48:52;10.07;;;2.47;;
23280;SDS011;11809;56.390;-3.266;2023-06-04T06:51:19;6.10;;;2.50;;
23280;SDS011;11809;56.390;-3.266;2023-06-04T06:53:46;10.73;;;2.58;;
23280;SDS011;11809;56.390;-3.266;2023-06-04T06:56:13;10.00;;;2.53;;
23280;SDS011;11809;56.390;-3.266;2023-06-04T06:58:41;6.03;;;2.65;;
23280;SDS011;11809;56.390;-3.266;2023-06-04T07:01:09;9.82;;;2.70;;
23280;SDS011;11809;56.390;-3.266;2023-06-04T07:03:36;12.02;;;3.03;;
23280;SDS011;11809;56.390;-3.266;2023-06-04T07:06:05;12.48;;;2.63;;
23280;SDS011;11809;56.390;-3.266;2023-06-04T07:08:33;11.80;;;3.05;;
23280;SDS011;11809;56.390;-3.266;2023-06-04T07:11:01;14.30;;;2.95;;
23280;SDS011;11809;56.390;-3.266;2023-06-04T07:13:29;16.05;;;3.08;;
23280;SDS011;11809;56.390;-3.266;2023-06-04T07:15:58;11.63;;;2.85;;
23280;SDS011;11809;56.390;-3.266;2023-06-04T07:18:26;7.50;;;3.00;;
23280;SDS011;11809;56.390;-3.266;2023-06-04T07:20:54;11.15;;;2.60;;
23280;SDS011;11809;56.390;-3.266;2023-06-04T07:23:23;8.93;;;2.85;;
23280;SDS011;11809;56.390;-3.266;2023-06-04T07:25:50;9.40;;;2.63;;
23280;SDS011;11809;56.390;-3.266;2023-06-04T07:28:17;9.95;;;2.65;;
23280;SDS011;11809;56.390;-3.266;2023-06-04T07:30:45;10.32;;;2.50;;
23280;SDS011;11809;56.390;-3.266;2023-06-04T07:33:12;7.07;;;2.72;;
23280;SDS011;11809;56.390;-3.266;2023-06-04T07:35:39;5.65;;;2.70;;
23280;SDS011;11809;56.390;-3.266;2023-06-04T07:38:06;7.72;;;2.28;;
23280;SDS011;11809;56.390;-3.266;2023-06-04T07:40:34;8.05;;;2.60;;
23280;SDS011;11809;56.390;-3.266;2023-06-04T07:43:01;4.95;;;2.50;;
23280;SDS011;11809;56.390;-3.266;2023-06-04T07:45:28;7.13;;;2.45;;
23280;SDS011;11809;56.390;-3.266;2023-06-04T07:48:01;7.15;;;2.47;;
23280;SDS011;11809;56.390;-3.266;2023-06-04T07:50:28;6.55;;;2.40;;
23280;SDS011;11809;56.390;-3.266;2023-06-04T07:52:59;25.45;;;3.63;;
23280;SDS011;11809;56.390;-3.266;2023-06-04T07:55:26;14.18;;;2.40;;
23280;SDS011;11809;56.390;-3.266;2023-06-04T07:57:53;5.35;;;2.13;;
23280;SDS011;11809;56.390;-3.266;2023-06-04T08:00:21;4.40;;;2.35;;
23280;SDS011;11809;56.390;-3.266;2023-06-04T08:02:48;6.38;;;2.40;;
23280;SDS011;11809;56.390;-3.266;2023-06-04T08:05:17;6.40;;;2.22;;
23280;SDS011;11809;56.390;-3.266;2023-06-04T08:07:45;6.15;;;2.20;;
23280;SDS011;11809;56.390;-3.266;2023-06-04T08:10:13;5.05;;;2.10;;
23280;SDS011;11809;56.390;-3.266;2023-06-04T08:12:40;3.92;;;2.13;;
23280;SDS011;11809;56.390;-3.266;2023-06-04T08:15:07;4.38;;;2.35;;
23280;SDS011;11809;56.390;-3.266;2023-06-04T08:17:35;8.02;;;2.13;;
23280;SDS011;11809;56.390;-3.266;2023-06-04T08:20:03;10.63;;;2.33;;
23280;SDS011;11809;56.390;-3.266;2023-06-04T08:22:33;8.48;;;2.60;;
23280;SDS011;11809;56.390;-3.266;2023-06-04T08:25:00;7.90;;;2.13;;
23280;SDS011;11809;56.390;-3.266;2023-06-04T08:27:27;5.20;;;2.33;;
23280;SDS011;11809;56.390;-3.266;2023-06-04T08:29:54;6.53;;;2.45;;
23280;SDS011;11809;56.390;-3.266;2023-06-04T08:32:21;12.23;;;2.60;;
23280;SDS011;11809;56.390;-3.266;2023-06-04T08:34:49;24.58;;;3.92;;
23280;SDS011;11809;56.390;-3.266;2023-06-04T08:37:17;9.32;;;3.22;;
23280;SDS011;11809;56.390;-3.266;2023-06-04T08:39:44;10.05;;;3.35;;
23280;SDS011;11809;56.390;-3.266;2023-06-04T08:44:58;12.43;;;3.58;;
23280;SDS011;11809;56.390;-3.266;2023-06-04T08:47:26;28.52;;;4.55;;
23280;SDS011;11809;56.390;-3.266;2023-06-04T08:50:00;25.15;;;3.85;;
23280;SDS011;11809;56.390;-3.266;2023-06-04T08:54:56;15.85;;;3.92;;
23280;SDS011;11809;56.390;-3.266;2023-06-04T08:57:24;14.13;;;3.67;;
23280;SDS011;11809;56.390;-3.266;2023-06-04T08:59:51;9.05;;;3.28;;
23280;SDS011;11809;56.390;-3.266;2023-06-04T09:02:19;18.65;;;4.07;;
23280;SDS011;11809;56.390;-3.266;2023-06-04T09:04:47;9.13;;;3.38;;
23280;SDS011;11809;56.390;-3.266;2023-06-04T09:07:14;6.78;;;3.35;;
23280;SDS011;11809;56.390;-3.266;2023-06-04T09:09:45;11.80;;;3.60;;
23280;SDS011;11809;56.390;-3.266;2023-06-04T09:12:25;6.10;;;3.22;;
23280;SDS011;11809;56.390;-3.266;2023-06-04T09:14:57;7.40;;;3.60;;
23280;SDS011;11809;56.390;-3.266;2023-06-04T09:17:24;11.43;;;3.70;;
23280;SDS011;11809;56.390;-3.266;2023-06-04T09:19:52;8.40;;;3.83;;
23280;SDS011;11809;56.390;-3.266;2023-06-04T09:22:19;8.88;;;3.65;;
23280;SDS011;11809;56.390;-3.266;2023-06-04T09:24:47;5.15;;;3.20;;
23280;SDS011;11809;56.390;-3.266;2023-06-04T09:27:20;6.32;;;3.28;;
23280;SDS011;11809;56.390;-3.266;2023-06-04T09:29:49;6.80;;;3.85;;
23280;SDS011;11809;56.390;-3.266;2023-06-04T09:32:21;8.60;;;4.18;;
23280;SDS011;11809;56.390;-3.266;2023-06-04T09:34:49;13.43;;;4.28;;
23280;SDS011;11809;56.390;-3.266;2023-06-04T09:37:16;7.65;;;4.18;;
23280;SDS011;11809;56.390;-3.266;2023-06-04T09:39:53;8.23;;;4.70;;
23280;SDS011;11809;56.390;-3.266;2023-06-04T09:42:22;10.95;;;4.22;;
23280;SDS011;11809;56.390;-3.266;2023-06-04T09:44:50;10.40;;;4.65;;
23280;SDS011;11809;56.390;-3.266;2023-06-04T09:47:17;12.02;;;4.90;;
23280;SDS011;11809;56.390;-3.266;2023-06-04T09:49:45;12.50;;;4.22;;
23280;SDS011;11809;56.390;-3.266;2023-06-04T09:52:13;5.88;;;3.90;;
23280;SDS011;11809;56.390;-3.266;2023-06-04T09:54:41;8.85;;;4.00;;
23280;SDS011;11809;56.390;-3.266;2023-06-04T09:57:18;7.28;;;4.03;;
23280;SDS011;11809;56.390;-3.266;2023-06-04T09:59:46;8.48;;;4.10;;
23280;SDS011;11809;56.390;-3.266;2023-06-04T10:02:18;7.43;;;4.30;;
23280;SDS011;11809;56.390;-3.266;2023-06-04T10:07:26;5.97;;;4.00;;
23280;SDS011;11809;56.390;-3.266;2023-06-04T10:09:53;9.73;;;4.30;;
23280;SDS011;11809;56.390;-3.266;2023-06-04T10:12:23;9.95;;;4.30;;
23280;SDS011;11809;56.390;-3.266;2023-06-04T10:14:56;10.05;;;3.88;;
23280;SDS011;11809;56.390;-3.266;2023-06-04T10:17:28;12.32;;;4.68;;
23280;SDS011;11809;56.390;-3.266;2023-06-04T10:19:57;13.77;;;4.65;;
23280;SDS011;11809;56.390;-3.266;2023-06-04T10:22:26;11.27;;;4.40;;
23280;SDS011;11809;56.390;-3.266;2023-06-04T10:24:55;7.82;;;4.35;;
23280;SDS011;11809;56.390;-3.266;2023-06-04T10:27:23;7.20;;;4.20;;
23280;SDS011;11809;56.390;-3.266;2023-06-04T10:29:51;6.10;;;4.10;;
23280;SDS011;11809;56.390;-3.266;2023-06-04T10:32:19;4.55;;;4.18;;
23280;SDS011;11809;56.390;-3.266;2023-06-04T10:34:47;17.27;;;4.90;;
23280;SDS011;11809;56.390;-3.266;2023-06-04T10:39:52;17.63;;;5.00;;
23280;SDS011;11809;56.390;-3.266;2023-06-04T10:42:21;13.63;;;4.60;;
23280;SDS011;11809;56.390;-3.266;2023-06-04T10:44:49;7.88;;;4.53;;
23280;SDS011;11809;56.390;-3.266;2023-06-04T10:47:24;10.23;;;4.55;;
23280;SDS011;11809;56.390;-3.266;2023-06-04T10:49:54;9.02;;;6.15;;
23280;SDS011;11809;56.390;-3.266;2023-06-04T10:52:21;11.32;;;5.75;;
23280;SDS011;11809;56.390;-3.266;2023-06-04T10:54:49;8.40;;;5.90;;
23280;SDS011;11809;56.390;-3.266;2023-06-04T10:57:18;8.52;;;6.72;;
23280;SDS011;11809;56.390;-3.266;2023-06-04T10:59:55;10.70;;;6.40;;
23280;SDS011;11809;56.390;-3.266;2023-06-04T11:02:27;11.07;;;5.75;;
23280;SDS011;11809;56.390;-3.266;2023-06-04T11:05:06;12.90;;;5.97;;
23280;SDS011;11809;56.390;-3.266;2023-06-04T11:10:10;13.05;;;5.72;;
23280;SDS011;11809;56.390;-3.266;2023-06-04T11:12:42;10.80;;;4.82;;
23280;SDS011;11809;56.390;-3.266;2023-06-04T11:15:13;8.23;;;4.15;;
23280;SDS011;11809;56.390;-3.266;2023-06-04T11:17:50;5.43;;;4.05;;
23280;SDS011;11809;56.390;-3.266;2023-06-04T11:20:19;7.63;;;4.60;;
23280;SDS011;11809;56.390;-3.266;2023-06-04T11:22:54;9.65;;;4.57;;
23280;SDS011;11809;56.390;-3.266;2023-06-04T11:25:25;13.35;;;6.80;;
23280;SDS011;11809;56.390;-3.266;2023-06-04T11:27:53;9.63;;;7.65;;
23280;SDS011;11809;56.390;-3.266;2023-06-04T11:30:22;15.45;;;7.20;;
23280;SDS011;11809;56.390;-3.266;2023-06-04T11:32:49;14.00;;;11.05;;
23280;SDS011;11809;56.390;-3.266;2023-06-04T11:35:17;17.90;;;10.68;;
23280;SDS011;11809;56.390;-3.266;2023-06-04T11:37:52;11.55;;;10.38;;
23280;SDS011;11809;56.390;-3.266;2023-06-04T11:40:21;18.05;;;10.75;;
23280;SDS011;11809;56.390;-3.266;2023-06-04T11:42:49;12.10;;;9.68;;
23280;SDS011;11809;56.390;-3.266;2023-06-04T11:45:18;15.15;;;9.55;;
23280;SDS011;11809;56.390;-3.266;2023-06-04T11:47:47;17.73;;;9.45;;
23280;SDS011;11809;56.390;-3.266;2023-06-04T11:50:15;14.15;;;8.20;;
23280;SDS011;11809;56.390;-3.266;2023-06-04T11:52:42;17.15;;;8.32;;
23280;SDS011;11809;56.390;-3.266;2023-06-04T11:55:10;18.52;;;8.43;;
23280;SDS011;11809;56.390;-3.266;2023-06-04T11:57:38;18.65;;;8.15;;
23280;SDS011;11809;56.390;-3.266;2023-06-04T12:00:09;15.55;;;7.90;;
23280;SDS011;11809;56.390;-3.266;2023-06-04T12:02:37;18.45;;;10.13;;
23280;SDS011;11809;56.390;-3.266;2023-06-04T12:05:14;16.63;;;9.18;;
23280;SDS011;11809;56.390;-3.266;2023-06-04T12:07:42;17.67;;;10.13;;
23280;SDS011;11809;56.390;-3.266;2023-06-04T12:10:09;23.55;;;10.65;;
23280;SDS011;11809;56.390;-3.266;2023-06-04T12:12:38;32.03;;;10.75;;
23280;SDS011;11809;56.390;-3.266;2023-06-04T12:15:07;22.75;;;8.93;;
23280;SDS011;11809;56.390;-3.266;2023-06-04T12:17:37;19.35;;;9.27;;
23280;SDS011;11809;56.390;-3.266;2023-06-04T12:20:04;20.40;;;8.43;;
23280;SDS011;11809;56.390;-3.266;2023-06-04T12:22:32;20.88;;;8.13;;
23280;SDS011;11809;56.390;-3.266;2023-06-04T12:24:59;20.40;;;8.27;;
23280;SDS011;11809;56.390;-3.266;2023-06-04T12:27:29;16.88;;;8.00;;
23280;SDS011;11809;56.390;-3.266;2023-06-04T12:32:27;17.02;;;7.70;;
23280;SDS011;11809;56.390;-3.266;2023-06-04T12:34:55;13.27;;;6.85;;
23280;SDS011;11809;56.390;-3.266;2023-06-04T12:37:23;16.02;;;6.82;;
23280;SDS011;11809;56.390;-3.266;2023-06-04T12:39:55;21.90;;;6.80;;
23280;SDS011;11809;56.390;-3.266;2023-06-04T12:42:22;13.67;;;6.60;;
23280;SDS011;11809;56.390;-3.266;2023-06-04T12:44:50;16.27;;;5.75;;
23280;SDS011;11809;56.390;-3.266;2023-06-04T12:47:17;16.33;;;5.90;;
23280;SDS011;11809;56.390;-3.266;2023-06-04T12:49:44;26.35;;;5.50;;
23280;SDS011;11809;56.390;-3.266;2023-06-04T12:52:12;15.05;;;5.10;;
23280;SDS011;11809;56.390;-3.266;2023-06-04T12:54:42;12.68;;;4.43;;
23280;SDS011;11809;56.390;-3.266;2023-06-04T12:57:10;16.25;;;4.57;;
23280;SDS011;11809;56.390;-3.266;2023-06-04T12:59:37;11.98;;;4.95;;
23280;SDS011;11809;56.390;-3.266;2023-06-04T13:02:05;22.08;;;5.28;;
23280;SDS011;11809;56.390;-3.266;2023-06-04T13:04:32;19.67;;;4.85;;
23280;SDS011;11809;56.390;-3.266;2023-06-04T13:06:59;15.48;;;4.20;;
23280;SDS011;11809;56.390;-3.266;2023-06-04T13:09:26;13.43;;;4.38;;
23280;SDS011;11809;56.390;-3.266;2023-06-04T13:11:57;12.82;;;4.00;;
23280;SDS011;11809;56.390;-3.266;2023-06-04T13:14:24;7.30;;;3.90;;
23280;SDS011;11809;56.390;-3.266;2023-06-04T13:16:51;6.95;;;3.95;;
23280;SDS011;11809;56.390;-3.266;2023-06-04T13:19:18;8.82;;;4.10;;
23280;SDS011;11809;56.390;-3.266;2023-06-04T13:21:50;5.95;;;3.63;;
23280;SDS011;11809;56.390;-3.266;2023-06-04T13:24:17;5.78;;;3.60;;
23280;SDS011;11809;56.390;-3.266;2023-06-04T13:26:44;8.60;;;4.13;;
23280;SDS011;11809;56.390;-3.266;2023-06-04T13:29:11;7.75;;;3.78;;
23280;SDS011;11809;56.390;-3.266;2023-06-04T13:31:40;7.82;;;3.70;;
23280;SDS011;11809;56.390;-3.266;2023-06-04T13:34:07;6.38;;;3.40;;
23280;SDS011;11809;56.390;-3.266;2023-06-04T13:36:52;6.10;;;3.50;;
23280;SDS011;11809;56.390;-3.266;2023-06-04T13:39:20;7.80;;;4.00;;
23280;SDS011;11809;56.390;-3.266;2023-06-04T13:41:47;5.90;;;3.58;;
23280;SDS011;11809;56.390;-3.266;2023-06-04T13:44:14;4.38;;;3.22;;
23280;SDS011;11809;56.390;-3.266;2023-06-04T13:46:41;8.07;;;3.35;;
23280;SDS011;11809;56.390;-3.266;2023-06-04T13:49:09;8.00;;;3.38;;
23280;SDS011;11809;56.390;-3.266;2023-06-04T13:51:36;22.60;;;3.83;;
23280;SDS011;11809;56.390;-3.266;2023-06-04T13:54:03;9.68;;;3.40;;
23280;SDS011;11809;56.390;-3.266;2023-06-04T13:56:30;10.00;;;3.75;;
23280;SDS011;11809;56.390;-3.266;2023-06-04T13:58:57;12.55;;;3.50;;
23280;SDS011;11809;56.390;-3.266;2023-06-04T14:01:24;7.13;;;3.22;;
23280;SDS011;11809;56.390;-3.266;2023-06-04T14:03:51;6.60;;;3.13;;
23280;SDS011;11809;56.390;-3.266;2023-06-04T14:06:19;5.25;;;2.55;;
23280;SDS011;11809;56.390;-3.266;2023-06-04T14:08:46;9.77;;;3.40;;
23280;SDS011;11809;56.390;-3.266;2023-06-04T14:11:13;4.72;;;3.30;;
23280;SDS011;11809;56.390;-3.266;2023-06-04T14:13:40;4.70;;;3.17;;
23280;SDS011;11809;56.390;-3.266;2023-06-04T14:16:11;5.85;;;3.38;;
23280;SDS011;11809;56.390;-3.266;2023-06-04T14:18:38;7.03;;;3.38;;
23280;SDS011;11809;56.390;-3.266;2023-06-04T14:21:06;6.97;;;4.05;;
23280;SDS011;11809;56.390;-3.266;2023-06-04T14:23:34;10.80;;;4.03;;
23280;SDS011;11809;56.390;-3.266;2023-06-04T14:26:01;10.10;;;3.65;;
23280;SDS011;11809;56.390;-3.266;2023-06-04T14:28:28;8.32;;;4.00;;
23280;SDS011;11809;56.390;-3.266;2023-06-04T14:30:56;8.82;;;4.10;;
23280;SDS011;11809;56.390;-3.266;2023-06-04T14:33:25;6.20;;;3.63;;
23280;SDS011;11809;56.390;-3.266;2023-06-04T14:35:52;16.80;;;4.25;;
23280;SDS011;11809;56.390;-3.266;2023-06-04T14:38:19;10.00;;;3.75;;
23280;SDS011;11809;56.390;-3.266;2023-06-04T14:40:49;7.53;;;3.70;;
23280;SDS011;11809;56.390;-3.266;2023-06-04T14:43:17;6.65;;;4.13;;
23280;SDS011;11809;56.390;-3.266;2023-06-04T14:45:44;8.45;;;3.90;;
23280;SDS011;11809;56.390;-3.266;2023-06-04T14:48:13;6.20;;;3.95;;
23280;SDS011;11809;56.390;-3.266;2023-06-04T14:50:42;6.72;;;3.40;;
23280;SDS011;11809;56.390;-3.266;2023-06-04T14:53:10;5.60;;;3.88;;
23280;SDS011;11809;56.390;-3.266;2023-06-04T14:55:38;5.78;;;3.97;;
23280;SDS011;11809;56.390;-3.266;2023-06-04T14:58:06;10.32;;;4.07;;